Time;durP1;ratioP1;P1;durP2;ratioP2;P2;SDS_P1;SDS_P2;PMS_P1;PMS_P2;Temp;Humidity;BMP_temperature;BMP_pressure;BME280_temperature;BME280_humidity;BME280_pressure;Samples;Min_cycle;Max_cycle;Signal;HPM_P1;HPM_P2
2022/08/19 00:02:22;;;;;;;16.92;8.93;;;;;;;;;;5057323;28;20494;-70
2022/08/19 00:04:52;;;;;;;15.50;8.32;;;;;;;;;;5069534;28;20028;-69
2022/08/19 00:07:20;;;;;;;15.60;8.02;;;;;;;;;;5063101;28;20051;-67
2022/08/19 00:09:46;;;;;;;14.43;8.20;;;;;;;;;;5065300;28;20038;-69
2022/08/19 00:12:12;;;;;;;14.02;8.60;;;;;;;;;;5065742;28;20108;-68
2022/08/19 00:14:38;;;;;;;15.43;8.15;;;;;;;;;;5062945;28;20498;-68
2022/08/19 00:17:06;;;;;;;14.68;8.90;;;;;;;;;;5064726;28;20471;-69
2022/08/19 00:19:32;;;;;;;11.82;9.20;;;;;;;;;;5065118;28;20024;-69
2022/08/19 00:21:58;;;;;;;15.88;9.00;;;;;;;;;;5063219;28;20025;-69
2022/08/19 00:24:24;;;;;;;12.07;8.50;;;;;;;;;;5064380;28;20039;-68
2022/08/19 00:26:51;;;;;;;14.13;8.73;;;;;;;;;;5064881;28;20017;-68
2022/08/19 00:29:20;;;;;;;12.18;8.75;;;;;;;;;;5062907;28;20023;-68
2022/08/19 00:31:46;;;;;;;11.95;9.13;;;;;;;;;;5064054;28;20031;-68
2022/08/19 00:34:12;;;;;;;10.82;8.77;;;;;;;;;;5070492;28;20037;-69
2022/08/19 00:36:39;;;;;;;11.63;8.70;;;;;;;;;;5074280;28;20035;-70
2022/08/19 00:39:04;;;;;;;15.40;8.98;;;;;;;;;;5074363;28;20059;-70
2022/08/19 00:41:30;;;;;;;10.32;9.23;;;;;;;;;;5074048;28;20031;-70
2022/08/19 00:44:07;;;;;;;12.38;9.20;;;;;;;;;;5073871;28;20032;-69
2022/08/19 00:46:36;;;;;;;10.35;8.30;;;;;;;;;;5074220;28;20093;-69
2022/08/19 00:49:07;;;;;;;11.65;9.27;;;;;;;;;;5074122;28;20510;-69
2022/08/19 00:51:32;;;;;;;13.18;9.07;;;;;;;;;;5073844;28;20399;-69
2022/08/19 00:53:58;;;;;;;11.93;8.93;;;;;;;;;;5073976;28;20112;-68
2022/08/19 00:56:26;;;;;;;10.68;8.20;;;;;;;;;;5074017;28;20048;-68
2022/08/19 00:58:53;;;;;;;10.43;8.90;;;;;;;;;;5073735;28;20024;-67
2022/08/19 01:01:19;;;;;;;10.15;8.55;;;;;;;;;;5073252;28;20483;-69
2022/08/19 01:03:44;;;;;;;10.68;8.70;;;;;;;;;;5073764;28;20043;-68
2022/08/19 01:06:10;;;;;;;11.52;8.48;;;;;;;;;;5073673;28;20029;-69
2022/08/19 01:08:35;;;;;;;12.00;8.23;;;;;;;;;;5073507;28;20479;-67
2022/08/19 01:11:01;;;;;;;11.65;8.60;;;;;;;;;;5064442;28;20107;-69
2022/08/19 01:13:30;;;;;;;11.95;8.45;;;;;;;;;;5057026;28;20033;-69
2022/08/19 01:15:59;;;;;;;11.93;9.23;;;;;;;;;;5053516;28;20020;-69
2022/08/19 01:18:26;;;;;;;12.07;10.32;;;;;;;;;;5053668;28;20025;-68
2022/08/19 01:20:56;;;;;;;13.43;9.73;;;;;;;;;;5053413;28;20025;-67
2022/08/19 01:23:42;;;;;;;10.82;9.18;;;;;;;;;;5053426;28;20086;-68
2022/08/19 01:26:07;;;;;;;11.20;9.65;;;;;;;;;;5053241;28;20033;-68
2022/08/19 01:28:33;;;;;;;13.00;10.57;;;;;;;;;;5053065;28;20503;-68
2022/08/19 01:30:58;;;;;;;12.15;9.90;;;;;;;;;;5053321;28;20033;-69
2022/08/19 01:33:24;;;;;;;11.38;9.75;;;;;;;;;;5053226;28;20094;-69
2022/08/19 01:35:51;;;;;;;12.05;9.93;;;;;;;;;;5053309;28;20025;-69
2022/08/19 01:38:24;;;;;;;11.30;10.10;;;;;;;;;;5053235;28;20017;-67
2022/08/19 01:40:50;;;;;;;13.85;9.68;;;;;;;;;;5052911;28;20086;-69
2022/08/19 01:43:16;;;;;;;11.82;10.68;;;;;;;;;;5072980;28;20032;-68
2022/08/19 01:45:42;;;;;;;11.93;9.90;;;;;;;;;;5073177;28;20029;-68
2022/08/19 01:48:07;;;;;;;12.20;10.93;;;;;;;;;;5073050;28;20028;-67
2022/08/19 01:50:34;;;;;;;11.85;10.65;;;;;;;;;;5073000;28;20039;-67
2022/08/19 01:53:04;;;;;;;11.77;10.63;;;;;;;;;;5072926;28;20063;-66
2022/08/19 01:55:30;;;;;;;17.40;13.25;;;;;;;;;;5072940;28;20024;-66
2022/08/19 01:57:59;;;;;;;16.92;15.23;;;;;;;;;;5071702;28;20501;-69
2022/08/19 02:00:27;;;;;;;16.57;14.83;;;;;;;;;;5072937;28;20032;-69
2022/08/19 02:02:54;;;;;;;18.30;16.48;;;;;;;;;;5072918;28;20024;-69
2022/08/19 02:05:21;;;;;;;17.65;15.77;;;;;;;;;;5072813;28;20028;-69
2022/08/19 02:07:47;;;;;;;18.02;16.13;;;;;;;;;;5072878;28;20033;-68
2022/08/19 02:10:18;;;;;;;22.38;15.63;;;;;;;;;;5072591;28;20840;-69
2022/08/19 02:12:44;;;;;;;18.10;15.25;;;;;;;;;;5071763;28;20036;-68
2022/08/19 02:15:10;;;;;;;19.33;15.55;;;;;;;;;;5072722;28;20029;-69
2022/08/19 02:17:35;;;;;;;21.45;17.88;;;;;;;;;;5072691;28;20031;-69
2022/08/19 02:20:01;;;;;;;18.60;16.80;;;;;;;;;;5072755;28;20104;-68
2022/08/19 02:22:27;;;;;;;20.77;17.45;;;;;;;;;;5071342;28;20093;-68
2022/08/19 02:24:54;;;;;;;21.02;18.75;;;;;;;;;;5072536;28;20032;-69
2022/08/19 02:27:21;;;;;;;19.17;15.43;;;;;;;;;;5072559;28;20055;-69
2022/08/19 02:29:48;;;;;;;19.30;15.85;;;;;;;;;;5072562;28;20028;-69
2022/08/19 02:32:14;;;;;;;15.48;13.32;;;;;;;;;;5072515;28;20475;-69
2022/08/19 02:34:40;;;;;;;19.20;13.50;;;;;;;;;;5072380;28;20108;-69
2022/08/19 02:38:24;;;;;;;16.73;12.95;;;;;;;;;;5072553;28;20055;-68
2022/08/19 02:39:52;;;;;;;15.43;12.43;;;;;;;;;;5072069;28;20036;-70
2022/08/19 02:42:17;;;;;;;15.27;11.88;;;;;;;;;;5072222;28;20383;-69
2022/08/19 02:44:43;;;;;;;13.48;11.90;;;;;;;;;;5072508;28;20031;-68
2022/08/19 02:47:09;;;;;;;13.05;11.05;;;;;;;;;;5072370;28;20024;-69
2022/08/19 02:49:35;;;;;;;12.85;11.55;;;;;;;;;;5072310;28;20089;-69
2022/08/19 02:52:01;;;;;;;12.93;10.93;;;;;;;;;;5071972;28;20128;-68
2022/08/19 02:54:27;;;;;;;13.60;10.82;;;;;;;;;;5072260;28;20107;-68
2022/08/19 02:56:53;;;;;;;14.20;11.48;;;;;;;;;;5072387;28;20091;-69
2022/08/19 02:59:18;;;;;;;10.73;9.65;;;;;;;;;;5072108;28;20063;-69
2022/08/19 03:01:45;;;;;;;11.65;9.63;;;;;;;;;;5072252;28;20078;-68
2022/08/19 03:04:14;;;;;;;14.32;10.23;;;;;;;;;;5072320;28;20430;-68
2022/08/19 03:06:44;;;;;;;11.35;10.15;;;;;;;;;;5072128;28;20023;-68
2022/08/19 03:09:11;;;;;;;12.77;10.55;;;;;;;;;;5072047;28;20020;-68
2022/08/19 03:11:37;;;;;;;15.00;10.45;;;;;;;;;;5072168;28;20503;-68
2022/08/19 03:14:04;;;;;;;11.02;9.90;;;;;;;;;;5072071;28;20035;-68
2022/08/19 03:16:32;;;;;;;12.02;10.15;;;;;;;;;;5072162;28;20107;-68
2022/08/19 03:18:59;;;;;;;14.68;11.05;;;;;;;;;;5072011;28;20035;-68
2022/08/19 03:21:27;;;;;;;14.07;10.95;;;;;;;;;;5072053;28;20394;-68
2022/08/19 03:23:58;;;;;;;24.48;11.80;;;;;;;;;;5072806;28;20111;-67
2022/08/19 03:26:23;;;;;;;16.05;11.65;;;;;;;;;;5075645;28;20108;-68
2022/08/19 03:28:49;;;;;;;15.95;12.57;;;;;;;;;;5075613;28;20519;-68
2022/08/19 03:31:18;;;;;;;15.85;12.93;;;;;;;;;;5075531;28;20078;-68
2022/08/19 03:33:44;;;;;;;17.05;13.52;;;;;;;;;;5074206;28;20021;-68
2022/08/19 03:36:11;;;;;;;18.38;12.77;;;;;;;;;;5075502;28;20024;-67
2022/08/19 03:38:49;;;;;;;15.40;13.18;;;;;;;;;;5075074;28;20478;-68
2022/08/19 03:41:21;;;;;;;15.68;13.75;;;;;;;;;;5075266;28;20053;-68
2022/08/19 03:43:48;;;;;;;15.05;12.43;;;;;;;;;;5075533;28;20029;-67
2022/08/19 03:46:22;;;;;;;15.75;13.32;;;;;;;;;;5075192;28;20031;-68
2022/08/19 03:48:54;;;;;;;16.40;13.63;;;;;;;;;;5075330;28;20471;-68
2022/08/19 03:51:25;;;;;;;16.88;12.88;;;;;;;;;;5075099;28;20494;-68
2022/08/19 03:53:52;;;;;;;14.50;12.68;;;;;;;;;;5074981;28;20386;-68
2022/08/19 03:56:18;;;;;;;19.55;14.93;;;;;;;;;;5075330;28;20024;-68
2022/08/19 03:58:44;;;;;;;14.25;12.75;;;;;;;;;;5074924;28;20540;-68
2022/08/19 04:01:14;;;;;;;15.85;12.43;;;;;;;;;;5075210;28;20056;-68
2022/08/19 04:03:39;;;;;;;18.85;11.93;;;;;;;;;;5075062;28;20104;-68
2022/08/19 04:06:21;;;;;;;15.27;12.38;;;;;;;;;;5074809;28;20435;-68
2022/08/19 04:08:48;;;;;;;12.43;10.48;;;;;;;;;;5074885;28;20146;-68
2022/08/19 04:11:15;;;;;;;17.52;10.70;;;;;;;;;;5074783;28;20024;-68
2022/08/19 04:13:43;;;;;;;19.35;12.32;;;;;;;;;;5074892;28;20111;-68
2022/08/19 04:16:09;;;;;;;17.23;12.98;;;;;;;;;;5074667;28;20059;-68
2022/08/19 04:18:37;;;;;;;17.55;13.27;;;;;;;;;;5074774;28;20076;-68
2022/08/19 04:21:04;;;;;;;15.32;13.45;;;;;;;;;;5074504;28;20052;-68
2022/08/19 04:23:29;;;;;;;20.13;14.13;;;;;;;;;;5074583;28;20024;-68
2022/08/19 04:25:55;;;;;;;14.88;13.25;;;;;;;;;;5074601;28;20017;-68
2022/08/19 04:28:21;;;;;;;16.17;13.68;;;;;;;;;;5074435;28;20025;-68
2022/08/19 04:30:49;;;;;;;15.93;11.68;;;;;;;;;;5074124;28;20036;-68
2022/08/19 04:33:17;;;;;;;17.17;12.40;;;;;;;;;;5074483;28;20063;-69
2022/08/19 04:35:45;;;;;;;12.68;11.23;;;;;;;;;;5073289;28;20021;-67
2022/08/19 04:38:11;;;;;;;14.20;12.68;;;;;;;;;;5074351;28;20071;-67
2022/08/19 04:43:24;;;;;;;14.55;11.68;;;;;;;;;;5074198;28;20046;-67
2022/08/19 04:45:51;;;;;;;15.07;12.38;;;;;;;;;;5074260;28;20375;-68
2022/08/19 04:48:25;;;;;;;14.10;11.57;;;;;;;;;;5074061;28;20029;-68
2022/08/19 04:50:57;;;;;;;12.82;11.00;;;;;;;;;;5073852;28;20476;-67
2022/08/19 04:53:32;;;;;;;14.52;11.80;;;;;;;;;;5073670;28;20134;-68
2022/08/19 04:55:59;;;;;;;12.45;10.98;;;;;;;;;;5074141;28;20025;-67
2022/08/19 04:58:26;;;;;;;12.52;11.18;;;;;;;;;;5072837;28;20077;-67
2022/08/19 05:00:52;;;;;;;15.60;12.13;;;;;;;;;;5073934;28;20068;-68
2022/08/19 05:03:19;;;;;;;13.68;10.15;;;;;;;;;;5073825;28;20056;-68
2022/08/19 05:05:48;;;;;;;15.52;10.88;;;;;;;;;;5073593;28;20032;-67
2022/08/19 05:08:22;;;;;;;13.93;10.55;;;;;;;;;;5073602;28;20032;-67
2022/08/19 05:10:49;;;;;;;11.75;10.20;;;;;;;;;;5073786;28;20020;-68
2022/08/19 05:13:17;;;;;;;12.07;9.05;;;;;;;;;;5073812;28;20033;-68
2022/08/19 05:15:44;;;;;;;12.85;9.25;;;;;;;;;;5073590;28;20102;-67
2022/08/19 05:23:38;;;;;;;14.73;9.85;;;;;;;;;;5073805;28;20020;-67
2022/08/19 05:26:04;;;;;;;10.05;9.02;;;;;;;;;;5073441;28;20028;-67
2022/08/19 05:28:30;;;;;;;12.35;9.77;;;;;;;;;;5073262;28;20048;-68
2022/08/19 05:30:56;;;;;;;12.20;9.85;;;;;;;;;;5073426;28;20066;-68
2022/08/19 05:33:23;;;;;;;11.30;8.52;;;;;;;;;;5072809;28;20059;-67
2022/08/19 05:35:50;;;;;;;10.48;9.20;;;;;;;;;;5073200;28;20467;-67
2022/08/19 05:38:17;;;;;;;11.50;8.40;;;;;;;;;;5073125;28;20029;-67
2022/08/19 05:40:46;;;;;;;9.77;8.77;;;;;;;;;;5072848;28;20394;-67
2022/08/19 05:43:15;;;;;;;11.40;9.25;;;;;;;;;;5073186;28;20482;-67
2022/08/19 05:45:42;;;;;;;10.15;8.50;;;;;;;;;;5073049;28;20037;-67
2022/08/19 05:48:10;;;;;;;14.48;9.57;;;;;;;;;;5072214;28;20024;-68
2022/08/19 05:50:37;;;;;;;11.98;8.68;;;;;;;;;;5072840;28;20021;-68
2022/08/19 05:53:03;;;;;;;11.48;9.63;;;;;;;;;;5072573;28;20540;-67
2022/08/19 05:55:28;;;;;;;11.40;8.43;;;;;;;;;;5072917;28;20155;-68
2022/08/19 05:57:54;;;;;;;12.10;9.00;;;;;;;;;;5073046;28;20466;-67
2022/08/19 06:00:19;;;;;;;13.82;8.00;;;;;;;;;;5072722;28;20025;-68
2022/08/19 06:02:45;;;;;;;13.55;9.93;;;;;;;;;;5072591;28;20032;-67
2022/08/19 06:05:10;;;;;;;11.07;9.27;;;;;;;;;;5072870;28;20025;-68
2022/08/19 06:07:38;;;;;;;12.82;9.05;;;;;;;;;;5072725;28;20399;-67
2022/08/19 06:10:09;;;;;;;12.23;9.07;;;;;;;;;;5072689;28;20082;-67
2022/08/19 06:12:36;;;;;;;13.32;8.57;;;;;;;;;;5072721;28;20056;-68
2022/08/19 06:15:05;;;;;;;10.30;8.85;;;;;;;;;;5072405;28;20025;-68
2022/08/19 06:17:31;;;;;;;9.98;8.77;;;;;;;;;;5072409;28;20032;-68
2022/08/19 06:19:58;;;;;;;11.63;8.93;;;;;;;;;;5072738;28;20028;-66
2022/08/19 06:22:23;;;;;;;10.48;7.90;;;;;;;;;;5072641;28;20039;-67
2022/08/19 06:24:52;;;;;;;11.32;9.10;;;;;;;;;;5072525;28;20025;-67
2022/08/19 06:27:18;;;;;;;15.13;10.23;;;;;;;;;;5072418;28;20025;-67
2022/08/19 06:29:44;;;;;;;12.05;9.23;;;;;;;;;;5072528;28;20028;-67
2022/08/19 06:32:10;;;;;;;9.85;8.82;;;;;;;;;;5072232;28;20482;-67
2022/08/19 06:34:36;;;;;;;15.30;9.93;;;;;;;;;;5072537;28;20035;-67
2022/08/19 06:37:03;;;;;;;12.95;8.98;;;;;;;;;;5072455;28;20025;-67
2022/08/19 06:39:34;;;;;;;16.38;9.18;;;;;;;;;;5072443;28;20044;-67
2022/08/19 06:42:01;;;;;;;14.52;8.52;;;;;;;;;;5072148;28;20033;-68
2022/08/19 06:44:29;;;;;;;12.73;8.35;;;;;;;;;;5072470;28;20112;-67
2022/08/19 06:46:55;;;;;;;10.60;8.70;;;;;;;;;;5072205;28;20103;-67
2022/08/19 06:49:22;;;;;;;12.25;9.35;;;;;;;;;;5072283;28;20127;-67
2022/08/19 06:51:49;;;;;;;13.02;10.40;;;;;;;;;;5072105;28;20414;-68
2022/08/19 06:54:16;;;;;;;11.93;9.77;;;;;;;;;;5072297;28;20032;-67
2022/08/19 06:56:45;;;;;;;13.80;8.60;;;;;;;;;;5072331;28;20390;-67
2022/08/19 06:59:17;;;;;;;11.73;8.33;;;;;;;;;;5073612;28;20050;-67
2022/08/19 07:01:49;;;;;;;12.90;8.52;;;;;;;;;;5066369;28;20047;-67
2022/08/19 07:04:21;;;;;;;15.35;8.85;;;;;;;;;;5056011;28;20029;-67
2022/08/19 07:06:48;;;;;;;10.30;9.15;;;;;;;;;;5055804;28;20025;-67
2022/08/19 07:09:17;;;;;;;10.02;8.98;;;;;;;;;;5057384;28;20028;-67
2022/08/19 07:11:48;;;;;;;12.82;9.73;;;;;;;;;;5054322;28;20360;-67
2022/08/19 07:14:17;;;;;;;13.32;10.95;;;;;;;;;;5057118;28;20035;-67
2022/08/19 07:16:45;;;;;;;10.75;9.43;;;;;;;;;;5061971;28;20480;-67
2022/08/19 07:19:11;;;;;;;11.15;9.38;;;;;;;;;;5074636;28;20036;-66
2022/08/19 07:21:37;;;;;;;13.35;9.43;;;;;;;;;;5075540;28;20473;-67
2022/08/19 07:24:03;;;;;;;13.25;10.02;;;;;;;;;;5071261;28;20040;-66
2022/08/19 07:26:31;;;;;;;12.88;9.88;;;;;;;;;;5063995;28;20045;-67
2022/08/19 07:28:59;;;;;;;11.52;10.32;;;;;;;;;;5054859;28;20021;-67
2022/08/19 07:31:27;;;;;;;12.60;10.27;;;;;;;;;;5055856;28;20036;-67
2022/08/19 07:33:57;;;;;;;12.63;11.30;;;;;;;;;;5073315;28;20115;-66
2022/08/19 07:36:28;;;;;;;14.45;11.07;;;;;;;;;;5075265;28;20074;-66
2022/08/19 07:38:54;;;;;;;12.90;10.80;;;;;;;;;;5075158;28;20036;-66
2022/08/19 07:41:23;;;;;;;16.08;11.25;;;;;;;;;;5074903;28;20364;-66
2022/08/19 07:43:49;;;;;;;14.83;9.97;;;;;;;;;;5074956;28;20027;-66
2022/08/19 07:46:16;;;;;;;12.70;9.85;;;;;;;;;;5075018;28;20451;-66
2022/08/19 07:48:45;;;;;;;14.10;11.07;;;;;;;;;;5069891;28;20438;-66
2022/08/19 07:51:11;;;;;;;13.40;11.45;;;;;;;;;;5073778;28;20031;-66
2022/08/19 07:53:37;;;;;;;11.45;9.73;;;;;;;;;;5074958;28;20086;-66
2022/08/19 07:56:04;;;;;;;13.20;10.98;;;;;;;;;;5074868;28;20029;-66
2022/08/19 07:58:32;;;;;;;13.43;11.30;;;;;;;;;;5074705;28;20051;-66
2022/08/19 08:00:59;;;;;;;14.85;11.20;;;;;;;;;;5071528;28;20021;-66
2022/08/19 08:09:10;;;;;;;12.15;10.68;;;;;;;;;;5062667;28;20032;-67
2022/08/19 08:09:10;;;;;;;12.85;10.75;;;;;;;;;;5063384;28;20048;-66
2022/08/19 08:11:41;;;;;;;11.13;9.02;;;;;;;;;;5063323;28;20100;-66
2022/08/19 08:14:08;;;;;;;17.08;11.07;;;;;;;;;;5059075;28;20048;-66
2022/08/19 08:16:38;;;;;;;12.18;10.20;;;;;;;;;;5073958;28;20541;-67
2022/08/19 08:19:05;;;;;;;12.75;10.05;;;;;;;;;;5074540;28;20157;-66
2022/08/19 08:21:32;;;;;;;15.32;10.77;;;;;;;;;;5074220;28;20214;-65
2022/08/19 08:23:57;;;;;;;14.52;11.15;;;;;;;;;;5074406;28;20028;-67
2022/08/19 08:26:24;;;;;;;14.93;10.90;;;;;;;;;;5073988;28;20441;-66
2022/08/19 08:28:51;;;;;;;17.50;11.32;;;;;;;;;;5074046;28;20473;-67
2022/08/19 08:31:18;;;;;;;11.18;10.05;;;;;;;;;;5073934;28;20028;-66
2022/08/19 08:33:45;;;;;;;14.40;11.00;;;;;;;;;;5063612;28;20016;-67
2022/08/19 08:36:15;;;;;;;13.27;11.38;;;;;;;;;;5053853;28;20029;-67
2022/08/19 08:38:45;;;;;;;13.57;10.55;;;;;;;;;;5054059;28;20515;-67
2022/08/19 08:41:19;;;;;;;16.63;10.75;;;;;;;;;;5071277;28;20020;-67
2022/08/19 08:43:47;;;;;;;13.77;10.07;;;;;;;;;;5073840;28;20467;-66
2022/08/19 08:46:22;;;;;;;14.23;10.73;;;;;;;;;;5073757;28;20036;-67
2022/08/19 08:48:56;;;;;;;14.95;10.93;;;;;;;;;;5073730;28;20486;-67
2022/08/19 08:51:32;;;;;;;12.05;10.75;;;;;;;;;;5073475;28;20468;-67
2022/08/19 08:53:59;;;;;;;14.38;10.38;;;;;;;;;;5073609;28;20032;-67
2022/08/19 08:56:25;;;;;;;12.05;10.82;;;;;;;;;;5073442;28;20036;-67
2022/08/19 08:59:09;;;;;;;12.88;10.52;;;;;;;;;;5073635;28;20547;-66
2022/08/19 09:01:36;;;;;;;15.95;11.65;;;;;;;;;;5070423;28;20075;-67
2022/08/19 09:04:06;;;;;;;16.52;11.70;;;;;;;;;;5052197;28;20032;-67
2022/08/19 09:06:38;;;;;;;16.15;13.57;;;;;;;;;;5052815;28;20025;-67
2022/08/19 09:09:24;;;;;;;15.63;12.98;;;;;;;;;;5052131;28;20024;-67
2022/08/19 09:11:49;;;;;;;16.20;13.50;;;;;;;;;;5052813;28;20081;-67
2022/08/19 09:14:45;;;;;;;15.85;13.23;;;;;;;;;;5052440;28;20118;-67
2022/08/19 09:17:11;;;;;;;22.92;15.10;;;;;;;;;;5053402;28;20088;-69
2022/08/19 09:19:53;;;;;;;17.67;14.60;;;;;;;;;;5051987;28;20124;-65
2022/08/19 09:22:21;;;;;;;15.52;13.18;;;;;;;;;;5050617;28;20120;-67
2022/08/19 09:24:54;;;;;;;16.75;14.90;;;;;;;;;;5052286;28;20028;-67
2022/08/19 09:27:20;;;;;;;18.35;13.50;;;;;;;;;;5061848;28;20045;-66
2022/08/19 09:29:48;;;;;;;18.52;13.52;;;;;;;;;;5061438;28;20104;-67
2022/08/19 09:32:14;;;;;;;15.38;13.75;;;;;;;;;;5066029;28;20502;-67
2022/08/19 09:34:39;;;;;;;15.88;14.18;;;;;;;;;;5064156;28;20056;-67
2022/08/19 09:37:06;;;;;;;15.93;13.55;;;;;;;;;;5066108;28;20029;-66
2022/08/19 09:39:31;;;;;;;15.98;12.95;;;;;;;;;;5063354;28;20057;-67
2022/08/19 09:41:57;;;;;;;15.93;14.38;;;;;;;;;;5056821;28;20075;-67
2022/08/19 09:44:23;;;;;;;18.85;13.68;;;;;;;;;;5061639;28;20383;-67
2022/08/19 09:46:48;;;;;;;16.90;14.93;;;;;;;;;;5067755;28;20036;-67
2022/08/19 09:49:16;;;;;;;18.55;15.05;;;;;;;;;;5057359;28;20379;-67
2022/08/19 09:51:42;;;;;;;21.95;16.98;;;;;;;;;;5052647;28;20048;-66
2022/08/19 09:54:08;;;;;;;24.60;17.38;;;;;;;;;;5067795;28;20029;-67
2022/08/19 09:56:33;;;;;;;22.38;16.17;;;;;;;;;;5072565;28;20056;-67
2022/08/19 09:59:00;;;;;;;21.90;17.70;;;;;;;;;;5072724;28;20095;-67
2022/08/19 10:01:27;;;;;;;23.33;16.77;;;;;;;;;;5069315;28;20025;-67
2022/08/19 10:03:56;;;;;;;20.15;15.55;;;;;;;;;;5065563;28;20154;-67
2022/08/19 10:06:23;;;;;;;19.75;15.88;;;;;;;;;;5072588;28;20109;-67
2022/08/19 10:08:51;;;;;;;19.98;14.98;;;;;;;;;;5059594;28;20031;-66
2022/08/19 10:11:18;;;;;;;19.30;15.65;;;;;;;;;;5071834;28;20497;-67
2022/08/19 10:13:44;;;;;;;17.27;15.20;;;;;;;;;;5072351;28;20091;-66
2022/08/19 10:16:14;;;;;;;20.83;15.45;;;;;;;;;;5072296;28;20059;-67
2022/08/19 10:18:43;;;;;;;22.15;17.45;;;;;;;;;;5072403;28;20585;-67
2022/08/19 10:21:15;;;;;;;19.73;17.00;;;;;;;;;;5072340;28;20044;-67
2022/08/19 10:23:46;;;;;;;19.42;15.38;;;;;;;;;;5070906;28;20409;-67
2022/08/19 10:26:23;;;;;;;20.98;15.02;;;;;;;;;;5071991;28;20387;-67
2022/08/19 10:28:50;;;;;;;20.88;14.57;;;;;;;;;;5068816;28;20032;-67
2022/08/19 10:31:22;;;;;;;20.13;15.77;;;;;;;;;;5063414;28;20456;-67
2022/08/19 10:33:48;;;;;;;24.48;17.92;;;;;;;;;;5072339;28;20068;-67
2022/08/19 10:36:22;;;;;;;26.48;20.20;;;;;;;;;;5076379;28;20109;-67
2022/08/19 10:38:50;;;;;;;21.88;17.23;;;;;;;;;;5076200;28;20146;-67
2022/08/19 10:41:24;;;;;;;20.67;15.45;;;;;;;;;;5076083;28;20017;-67
2022/08/19 10:43:58;;;;;;;22.08;17.83;;;;;;;;;;5076236;28;20029;-67
2022/08/19 10:46:26;;;;;;;24.20;18.42;;;;;;;;;;5076144;28;20032;-67
2022/08/19 10:48:52;;;;;;;27.42;20.67;;;;;;;;;;5075985;28;20036;-67
2022/08/19 10:54:03;;;;;;;23.58;17.15;;;;;;;;;;5075865;28;20423;-67
2022/08/19 10:59:15;;;;;;;27.70;21.92;;;;;;;;;;5076067;28;20059;-67
2022/08/19 11:01:44;;;;;;;31.00;23.60;;;;;;;;;;5075884;28;20024;-67
2022/08/19 11:04:10;;;;;;;34.38;24.55;;;;;;;;;;5075781;28;20021;-66
2022/08/19 11:06:38;;;;;;;27.13;20.50;;;;;;;;;;5075497;28;20060;-67
2022/08/19 11:09:05;;;;;;;28.35;22.90;;;;;;;;;;5075249;28;20052;-67
2022/08/19 11:11:31;;;;;;;29.55;23.83;;;;;;;;;;5075703;28;20025;-66
2022/08/19 11:13:58;;;;;;;27.88;23.02;;;;;;;;;;5075527;28;20082;-67
2022/08/19 11:16:26;;;;;;;25.88;19.42;;;;;;;;;;5075425;28;20032;-67
2022/08/19 11:18:55;;;;;;;29.25;21.38;;;;;;;;;;5075415;28;20516;-66
2022/08/19 11:21:32;;;;;;;24.75;19.63;;;;;;;;;;5075233;28;20033;-67
2022/08/19 11:24:03;;;;;;;28.80;19.42;;;;;;;;;;5075383;28;20025;-66
2022/08/19 11:26:29;;;;;;;23.73;19.13;;;;;;;;;;5075360;28;20519;-67
2022/08/19 11:28:56;;;;;;;30.77;20.73;;;;;;;;;;5075056;28;20051;-67
2022/08/19 11:31:24;;;;;;;23.30;19.52;;;;;;;;;;5075424;28;20025;-67
2022/08/19 11:33:52;;;;;;;26.48;20.30;;;;;;;;;;5074874;28;20409;-67
2022/08/19 11:36:18;;;;;;;33.13;22.98;;;;;;;;;;5063898;28;20060;-67
2022/08/19 11:38:45;;;;;;;26.33;20.95;;;;;;;;;;5055293;28;20112;-66
2022/08/19 11:41:11;;;;;;;26.48;20.13;;;;;;;;;;5055108;28;20021;-67
2022/08/19 11:43:37;;;;;;;20.85;16.35;;;;;;;;;;5055218;28;20025;-67
2022/08/19 11:46:08;;;;;;;22.48;17.35;;;;;;;;;;5054726;28;20052;-66
2022/08/19 11:48:34;;;;;;;24.52;19.23;;;;;;;;;;5054563;28;20024;-67
2022/08/19 11:51:05;;;;;;;17.05;14.02;;;;;;;;;;5054792;28;20020;-67
2022/08/19 11:53:31;;;;;;;24.55;19.02;;;;;;;;;;5054735;28;20139;-67
2022/08/19 11:55:57;;;;;;;18.90;15.85;;;;;;;;;;5055051;28;20486;-67
2022/08/19 11:58:22;;;;;;;20.20;16.52;;;;;;;;;;5054709;28;20017;-67
2022/08/19 12:00:48;;;;;;;23.88;17.33;;;;;;;;;;5054643;28;20103;-67
2022/08/19 12:03:14;;;;;;;19.20;16.10;;;;;;;;;;5060218;28;20078;-67
2022/08/19 12:05:40;;;;;;;18.60;14.95;;;;;;;;;;5071129;28;20027;-67
2022/08/19 12:08:07;;;;;;;15.32;13.30;;;;;;;;;;5074572;28;20024;-67
2022/08/19 12:10:34;;;;;;;19.42;14.70;;;;;;;;;;5074567;28;20107;-67
2022/08/19 12:12:59;;;;;;;17.30;13.10;;;;;;;;;;5073400;28;20029;-67
2022/08/19 12:15:27;;;;;;;17.35;13.85;;;;;;;;;;5074626;28;20033;-66
2022/08/19 12:17:56;;;;;;;17.48;13.95;;;;;;;;;;5074380;28;20028;-67
2022/08/19 12:20:22;;;;;;;16.70;13.68;;;;;;;;;;5074125;28;20084;-67
2022/08/19 12:22:48;;;;;;;15.43;13.48;;;;;;;;;;5073065;28;20028;-67
2022/08/19 12:25:14;;;;;;;17.60;13.15;;;;;;;;;;5074336;28;20108;-67
2022/08/19 12:27:39;;;;;;;17.50;13.98;;;;;;;;;;5074090;28;20035;-67
2022/08/19 12:30:08;;;;;;;13.48;11.77;;;;;;;;;;5074484;28;20061;-67
2022/08/19 12:32:34;;;;;;;12.65;11.32;;;;;;;;;;5073934;28;20025;-67
2022/08/19 12:34:59;;;;;;;15.98;12.38;;;;;;;;;;5073950;28;20380;-66
2022/08/19 12:37:25;;;;;;;13.70;10.75;;;;;;;;;;5074222;28;20468;-66
2022/08/19 12:39:50;;;;;;;12.70;11.32;;;;;;;;;;5074031;28;20031;-67
2022/08/19 12:42:17;;;;;;;13.07;10.70;;;;;;;;;;5073956;28;20399;-67
2022/08/19 12:44:44;;;;;;;14.73;12.50;;;;;;;;;;5073941;28;20116;-67
2022/08/19 12:47:13;;;;;;;16.55;11.32;;;;;;;;;;5074025;28;20036;-66
2022/08/19 12:49:40;;;;;;;12.07;10.13;;;;;;;;;;5072122;28;20073;-67
2022/08/19 12:52:07;;;;;;;11.30;10.20;;;;;;;;;;5073533;28;20417;-67
2022/08/19 12:54:34;;;;;;;13.50;10.73;;;;;;;;;;5073783;28;20059;-67
2022/08/19 12:57:00;;;;;;;14.38;10.20;;;;;;;;;;5073003;28;20109;-67
2022/08/19 12:59:27;;;;;;;13.98;10.40;;;;;;;;;;5073776;28;20056;-67
2022/08/19 13:01:52;;;;;;;14.27;10.30;;;;;;;;;;5073357;28;20030;-67
2022/08/19 13:04:18;;;;;;;16.65;11.15;;;;;;;;;;5072158;28;20364;-67
2022/08/19 13:06:44;;;;;;;10.60;9.60;;;;;;;;;;5073626;28;20035;-67
2022/08/19 13:09:10;;;;;;;12.20;9.75;;;;;;;;;;5073781;28;20536;-66
2022/08/19 13:11:37;;;;;;;13.95;10.18;;;;;;;;;;5073326;28;20020;-66
2022/08/19 13:14:03;;;;;;;13.00;10.30;;;;;;;;;;5073456;28;20487;-67
2022/08/19 13:16:29;;;;;;;14.32;9.85;;;;;;;;;;5073402;28;20029;-67
2022/08/19 13:18:56;;;;;;;15.02;10.13;;;;;;;;;;5073285;28;20029;-67
2022/08/19 13:21:25;;;;;;;13.55;9.88;;;;;;;;;;5073165;28;20033;-66
2022/08/19 13:23:51;;;;;;;11.43;10.23;;;;;;;;;;5073066;28;20484;-67
2022/08/19 13:26:17;;;;;;;12.48;9.88;;;;;;;;;;5072902;28;20036;-67
2022/08/19 13:34:15;;;;;;;13.25;9.93;;;;;;;;;;5053117;28;20503;-67
2022/08/19 13:36:41;;;;;;;13.73;9.93;;;;;;;;;;5052815;28;20787;-67
2022/08/19 13:39:22;;;;;;;11.48;9.32;;;;;;;;;;5052903;28;20029;-68
2022/08/19 13:41:49;;;;;;;11.85;10.63;;;;;;;;;;5050963;28;20036;-67
2022/08/19 13:44:18;;;;;;;11.10;8.82;;;;;;;;;;5052838;28;20114;-67
2022/08/19 13:46:45;;;;;;;12.13;9.10;;;;;;;;;;5052684;28;20036;-66
2022/08/19 13:49:12;;;;;;;11.30;10.10;;;;;;;;;;5052557;28;20068;-66
2022/08/19 13:51:42;;;;;;;13.75;10.20;;;;;;;;;;5052367;28;20037;-67
2022/08/19 13:54:10;;;;;;;12.65;10.13;;;;;;;;;;5052589;28;20037;-66
2022/08/19 13:56:44;;;;;;;;;;;;;;;;;;5052669;28;20057;-66
2022/08/19 13:59:11;;;;;;;12.00;10.05;;;;;;;;;;5052610;28;19919;-66
2022/08/19 14:01:37;;;;;;;13.20;10.43;;;;;;;;;;5052453;28;20027;-66
2022/08/19 14:04:03;;;;;;;14.18;10.55;;;;;;;;;;5052727;28;20032;-66
2022/08/19 14:06:29;;;;;;;12.38;10.60;;;;;;;;;;5052559;28;20098;-66
2022/08/19 14:08:55;;;;;;;16.77;11.00;;;;;;;;;;5052295;28;20476;-66
2022/08/19 14:11:22;;;;;;;14.32;11.15;;;;;;;;;;5052293;28;20377;-66
2022/08/19 14:13:48;;;;;;;13.02;10.50;;;;;;;;;;5052292;28;20116;-67
2022/08/19 14:16:14;;;;;;;16.08;10.25;;;;;;;;;;5052239;28;20064;-66
2022/08/19 14:18:40;;;;;;;12.35;11.05;;;;;;;;;;5052092;28;20040;-66
2022/08/19 14:21:06;;;;;;;13.60;10.50;;;;;;;;;;5052223;28;20028;-66
2022/08/19 14:23:33;;;;;;;16.15;10.60;;;;;;;;;;5052069;28;20091;-66
2022/08/19 14:26:11;;;;;;;12.65;11.07;;;;;;;;;;5052027;28;20021;-67
2022/08/19 14:28:40;;;;;;;13.60;11.02;;;;;;;;;;5052152;28;20037;-66
2022/08/19 14:31:06;;;;;;;12.03;10.00;;;;;;;;;;5052194;28;20430;-67
2022/08/19 14:33:32;;;;;;;13.05;11.43;;;;;;;;;;5052131;28;20400;-67
2022/08/19 14:35:57;;;;;;;12.43;10.68;;;;;;;;;;5052094;28;20380;-67
2022/08/19 14:38:23;;;;;;;14.55;10.38;;;;;;;;;;5052077;28;20025;-67
2022/08/19 14:40:49;;;;;;;12.77;11.13;;;;;;;;;;5052784;28;20025;-66
2022/08/19 14:43:14;;;;;;;16.73;10.88;;;;;;;;;;5072125;28;20028;-67
2022/08/19 14:45:40;;;;;;;12.70;11.35;;;;;;;;;;5071955;28;20410;-67
2022/08/19 14:48:07;;;;;;;17.35;10.85;;;;;;;;;;5072085;28;20123;-67